Time;durP1;ratioP1;P1;durP2;ratioP2;P2;SDS_P1;SDS_P2;PMS_P1;PMS_P2;Temp;Humidity;BMP_temperature;BMP_pressure;BME280_temperature;BME280_humidity;BME280_pressure;Samples;Min_cycle;Max_cycle;Signal;HPM_P1;HPM_P2
2022/03/24 00:00:26;;;;;;;0.50;0.50;;;;;;;8.48;42.07;97933.69;29395;198;63005;-62
2022/03/24 00:00:57;;;;;;;0.50;0.50;;;;;;;8.47;42.04;97926.63;29395;215;63009;-61
2022/03/24 00:01:29;;;;;;;0.50;0.50;;;;;;;8.46;42.17;97935.00;29394;234;64005;-61
2022/03/24 00:02:00;;;;;;;0.50;0.50;;;;;;;8.44;42.27;97924.44;29395;209;63009;-61
2022/03/24 00:02:32;;;;;;;0.50;0.50;;;;;;;8.44;42.11;97926.31;29395;262;63004;-62
2022/03/24 00:03:03;;;;;;;0.50;0.50;;;;;;;8.43;42.36;97925.50;29395;214;63009;-62
2022/03/24 00:03:35;;;;;;;0.50;0.50;;;;;;;8.42;42.17;97933.88;29395;220;63004;-62
2022/03/24 00:04:06;;;;;;;0.50;0.50;;;;;;;8.41;42.31;97927.63;29394;211;64008;-62
2022/03/24 00:04:41;;;;;;;0.50;0.50;;;;;;;8.41;42.13;97927.63;29395;223;63004;-62
2022/03/24 00:05:13;;;;;;;0.50;0.50;;;;;;;8.40;42.31;97931.41;29395;297;63009;-62
2022/03/24 00:05:44;;;;;;;0.52;0.52;;;;;;;8.40;42.01;97926.00;29395;197;63005;-61
2022/03/24 00:06:16;;;;;;;0.50;0.50;;;;;;;8.39;42.34;97927.91;29395;238;63009;-62
2022/03/24 00:06:50;;;;;;;0.50;0.50;;;;;;;8.38;42.06;97922.75;29395;203;63005;-61
2022/03/24 00:07:22;;;;;;;0.50;0.50;;;;;;;8.38;42.22;97925.44;29395;239;63009;-62
2022/03/24 00:07:55;;;;;;;0.50;0.50;;;;;;;8.38;42.27;97922.75;29395;233;63005;-62
2022/03/24 00:08:26;;;;;;;0.50;0.50;;;;;;;8.39;42.40;97924.38;29395;332;63009;-62
2022/03/24 00:08:58;;;;;;;0.50;0.50;;;;;;;8.39;42.15;97924.38;29394;197;64005;-62
2022/03/24 00:09:29;;;;;;;0.50;0.50;;;;;;;8.39;42.21;97922.47;29395;215;63009;-63
2022/03/24 00:10:00;;;;;;;0.50;0.50;;;;;;;8.38;41.96;97922.75;29395;204;63004;-61
2022/03/24 00:10:31;;;;;;;0.50;0.50;;;;;;;8.38;42.06;97925.44;29395;290;63009;-62
2022/03/24 00:11:02;;;;;;;0.50;0.50;;;;;;;8.36;41.98;97922.16;29395;202;63004;-61
2022/03/24 00:11:34;;;;;;;0.50;0.50;;;;;;;8.34;41.95;97922.41;29395;220;63009;-62
2022/03/24 00:12:07;;;;;;;0.50;0.50;;;;;;;8.33;42.18;97923.50;29395;227;63004;-62
2022/03/24 00:12:39;;;;;;;0.50;0.50;;;;;;;8.32;42.36;97921.00;29395;241;63009;-63
2022/03/24 00:13:11;;;;;;;0.50;0.50;;;;;;;8.32;42.37;97923.72;29395;385;63005;-62
2022/03/24 00:13:42;;;;;;;0.50;0.50;;;;;;;8.33;42.44;97914.56;29395;210;63009;-63
2022/03/24 00:14:16;;;;;;;0.50;0.50;;;;;;;8.34;42.05;97919.72;29394;356;64005;-61
2022/03/24 00:14:48;;;;;;;0.50;0.50;;;;;;;8.34;41.95;97917.00;29395;238;63009;-62
2022/03/24 00:15:20;;;;;;;0.50;0.50;;;;;;;8.35;41.81;97923.25;29394;202;64005;-62
2022/03/24 00:15:52;;;;;;;0.50;0.50;;;;;;;8.36;41.91;97919.47;29395;305;63009;-63
2022/03/24 00:16:23;;;;;;;0.50;0.50;;;;;;;8.35;41.79;97917.84;29395;220;63004;-63
2022/03/24 00:16:54;;;;;;;0.50;0.50;;;;;;;8.36;41.98;97924.88;29395;216;63009;-63
2022/03/24 00:17:25;;;;;;;0.50;0.50;;;;;;;8.34;41.85;97922.41;29395;198;63004;-62
2022/03/24 00:17:56;;;;;;;0.50;0.50;;;;;;;8.34;41.81;97918.91;29395;196;63009;-62
2022/03/24 00:18:31;;;;;;;0.50;0.50;;;;;;;8.34;42.00;97921.59;29395;215;63004;-62
2022/03/24 00:19:02;;;;;;;0.50;0.50;;;;;;;8.32;42.06;97918.31;29395;234;63008;-62
2022/03/24 00:19:34;;;;;;;0.50;0.50;;;;;;;8.32;41.94;97923.72;29395;195;63004;-64
2022/03/24 00:20:11;;;;;;;0.50;0.50;;;;;;;8.30;42.12;97920.47;29394;225;64009;-63
2022/03/24 00:20:46;;;;;;;0.50;0.50;;;;;;;8.28;41.86;97922.63;29395;202;63005;-62
2022/03/24 00:21:17;;;;;;;0.50;0.50;;;;;;;8.26;41.94;97913.94;29394;205;64009;-62
2022/03/24 00:21:49;;;;;;;0.60;0.60;;;;;;;8.25;41.94;97915.00;29395;227;63005;-62
2022/03/24 00:22:21;;;;;;;0.50;0.50;;;;;;;8.24;41.97;97916.06;29395;266;63005;-62
2022/03/24 00:22:52;;;;;;;0.50;0.50;;;;;;;8.22;42.10;97915.50;29395;214;63005;-62
2022/03/24 00:23:24;;;;;;;0.50;0.50;;;;;;;8.21;42.18;97921.97;29395;258;63009;-61
2022/03/24 00:23:55;;;;;;;0.50;0.50;;;;;;;8.19;42.28;97919.53;29395;321;63004;-62
2022/03/24 00:24:27;;;;;;;0.50;0.50;;;;;;;8.18;42.52;97917.06;29395;218;63009;-62
2022/03/24 00:24:58;;;;;;;0.50;0.50;;;;;;;8.16;42.31;97920.03;29395;277;63004;-63
2022/03/24 00:25:29;;;;;;;0.50;0.50;;;;;;;8.16;42.45;97921.91;29395;220;63009;-63
2022/03/24 00:26:02;;;;;;;0.50;0.50;;;;;;;8.14;42.45;97916.75;29394;202;64004;-61
2022/03/24 00:26:33;;;;;;;0.50;0.50;;;;;;;8.13;42.56;97920.53;29395;369;63008;-62
2022/03/24 00:27:05;;;;;;;0.50;0.50;;;;;;;8.13;42.59;97919.72;29395;198;63005;-63
2022/03/24 00:27:36;;;;;;;0.50;0.50;;;;;;;8.11;42.80;97922.66;29395;257;63009;-63
2022/03/24 00:28:08;;;;;;;0.50;0.50;;;;;;;8.10;42.68;97920.22;29395;198;63017;-61
2022/03/24 00:28:39;;;;;;;0.50;0.50;;;;;;;8.09;42.59;97919.41;29394;197;64009;-64
2022/03/24 00:29:11;;;;;;;0.50;0.50;;;;;;;8.07;42.66;97922.34;29395;252;63005;-63
2022/03/24 00:29:45;;;;;;;0.50;0.50;;;;;;;8.07;42.76;97919.66;29395;205;63009;-63
2022/03/24 00:30:16;;;;;;;0.50;0.50;;;;;;;8.04;42.72;97917.44;29395;203;63005;-63
2022/03/24 00:30:51;;;;;;;0.50;0.50;;;;;;;8.02;42.72;97911.47;29395;330;63005;-62
2022/03/24 00:31:22;;;;;;;0.50;0.50;;;;;;;8.02;42.68;97914.16;29395;223;63004;-63
2022/03/24 00:31:54;;;;;;;0.50;0.50;;;;;;;8.00;42.73;97916.31;29395;220;63009;-62
2022/03/24 00:32:25;;;;;;;0.50;0.50;;;;;;;7.98;43.11;97913.03;29395;205;63004;-61
2022/03/24 00:32:57;;;;;;;0.50;0.50;;;;;;;7.97;42.95;97914.09;29394;218;64009;-63
2022/03/24 00:33:31;;;;;;;0.50;0.50;;;;;;;7.95;43.14;97912.75;29395;237;63004;-61
2022/03/24 00:34:02;;;;;;;0.50;0.50;;;;;;;7.94;43.20;97911.13;29394;211;64008;-64
2022/03/24 00:34:33;;;;;;;0.50;0.50;;;;;;;7.92;43.12;97908.66;29395;232;63005;-61
2022/03/24 00:35:08;;;;;;;0.60;0.60;;;;;;;7.90;42.88;97910.78;29395;206;63009;-62
2022/03/24 00:35:40;;;;;;;0.50;0.50;;;;;;;7.90;43.04;97908.09;29394;362;64005;-62
2022/03/24 00:36:11;;;;;;;0.50;0.50;;;;;;;7.89;43.07;97914.56;29395;285;63009;-62
2022/03/24 00:36:43;;;;;;;0.60;0.60;;;;;;;7.88;42.89;97912.94;29395;228;63005;-61
2022/03/24 00:37:15;;;;;;;0.50;0.50;;;;;;;7.88;42.92;97910.22;29395;256;63009;-62
2022/03/24 00:37:46;;;;;;;0.50;0.50;;;;;;;7.86;42.88;97909.66;29394;250;64005;-63
2022/03/24 00:38:17;;;;;;;0.50;0.50;;;;;;;7.86;43.03;97914.25;29395;204;63009;-61
2022/03/24 00:38:52;;;;;;;0.50;0.50;;;;;;;7.85;43.14;97907.22;29395;230;63004;-61
2022/03/24 00:39:23;;;;;;;0.50;0.50;;;;;;;7.82;43.32;97911.22;29394;197;64009;-63
2022/03/24 00:39:54;;;;;;;0.50;0.50;;;;;;;7.82;43.06;97911.22;29395;244;63004;-63
2022/03/24 00:40:26;;;;;;;0.50;0.50;;;;;;;7.82;43.22;97908.53;29395;256;63009;-62
2022/03/24 00:40:58;;;;;;;0.50;0.50;;;;;;;7.81;42.98;97906.88;29395;221;63004;-62
2022/03/24 00:41:29;;;;;;;0.50;0.50;;;;;;;7.80;43.05;97910.66;29395;250;63008;-63
2022/03/24 00:42:01;;;;;;;0.50;0.50;;;;;;;7.80;42.99;97916.06;29395;200;63005;-62
2022/03/24 00:42:34;;;;;;;0.50;0.50;;;;;;;7.80;43.14;97910.66;29395;264;63009;-61
2022/03/24 00:43:05;;;;;;;0.50;0.50;;;;;;;7.79;43.07;97906.31;29395;274;63005;-62
2022/03/24 00:43:37;;;;;;;0.60;0.60;;;;;;;7.79;43.26;97909.03;29395;202;63009;-64
2022/03/24 00:44:09;;;;;;;0.50;0.50;;;;;;;7.80;43.26;97905.25;29395;239;63005;-62
2022/03/24 00:44:44;;;;;;;0.50;0.50;;;;;;;7.80;42.88;97910.66;29394;230;64009;-63
2022/03/24 00:45:15;;;;;;;0.50;0.50;;;;;;;7.80;42.85;97909.84;29395;228;63005;-62
2022/03/24 00:45:47;;;;;;;0.45;0.45;;;;;;;7.81;43.09;97914.16;29395;251;63009;-61
2022/03/24 00:46:22;;;;;;;0.50;0.50;;;;;;;7.80;43.04;97904.44;29395;204;63004;-61
2022/03/24 00:46:57;;;;;;;0.50;0.50;;;;;;;7.81;43.03;97912.28;29395;229;63009;-62
2022/03/24 00:47:28;;;;;;;0.50;0.50;;;;;;;7.82;42.98;97907.69;29395;203;63004;-61
2022/03/24 00:48:00;;;;;;;0.52;0.52;;;;;;;7.81;42.99;97906.88;29395;231;63009;-61
2022/03/24 00:48:32;;;;;;;0.50;0.50;;;;;;;7.81;42.89;97901.47;29395;203;63004;-63
2022/03/24 00:49:03;;;;;;;0.50;0.50;;;;;;;7.81;42.83;97906.06;29395;217;63008;-62
2022/03/24 00:49:34;;;;;;;0.60;0.60;;;;;;;7.81;42.89;97895.25;29394;207;64005;-61
2022/03/24 00:50:08;;;;;;;0.50;0.50;;;;;;;7.80;42.96;97905.25;29395;198;63009;-63
2022/03/24 00:50:39;;;;;;;0.50;0.50;;;;;;;7.81;42.88;97906.88;29395;216;63005;-62
2022/03/24 00:51:13;;;;;;;0.50;0.50;;;;;;;7.81;43.01;97896.06;29395;262;63009;-63
2022/03/24 00:51:45;;;;;;;0.50;0.50;;;;;;;7.81;42.79;97909.59;29395;196;63005;-62
2022/03/24 00:52:16;;;;;;;0.50;0.50;;;;;;;7.80;43.04;97905.25;29395;234;63009;-61
2022/03/24 00:52:47;;;;;;;0.50;0.50;;;;;;;7.80;43.05;97905.25;29395;327;63005;-64
2022/03/24 00:53:18;;;;;;;0.50;0.50;;;;;;;7.80;43.07;97896.31;29394;387;64009;-62
2022/03/24 00:53:49;;;;;;;0.50;0.50;;;;;;;7.80;43.17;97899.84;29395;257;63004;-62
2022/03/24 00:54:21;;;;;;;0.50;0.50;;;;;;;7.80;43.16;97899.84;29395;213;63009;-63
2022/03/24 00:54:54;;;;;;;0.50;0.50;;;;;;;7.80;42.79;97905.25;29395;269;63004;-61
2022/03/24 00:55:25;;;;;;;0.50;0.50;;;;;;;7.79;43.14;97898.22;29395;374;63009;-63
2022/03/24 00:55:58;;;;;;;0.50;0.50;;;;;;;7.79;42.78;97890.09;29395;208;63004;-61
2022/03/24 00:56:29;;;;;;;0.60;0.60;;;;;;;7.79;43.11;97897.41;29395;345;63008;-60
2022/03/24 00:57:02;;;;;;;0.50;0.50;;;;;;;7.79;43.09;97898.22;29394;241;64005;-63
2022/03/24 00:57:37;;;;;;;0.50;0.50;;;;;;;7.80;43.47;97899.84;29395;230;63009;-62
2022/03/24 00:58:08;;;;;;;0.50;0.50;;;;;;;7.81;43.11;97896.06;29394;225;64005;-62
2022/03/24 00:58:39;;;;;;;0.50;0.50;;;;;;;7.81;43.22;97895.25;29394;247;64009;-63
2022/03/24 00:59:11;;;;;;;0.50;0.50;;;;;;;7.83;43.04;97899.34;29395;247;63005;-62
2022/03/24 00:59:42;;;;;;;0.50;0.50;;;;;;;7.82;42.95;97892.31;29395;268;63009;-61
2022/03/24 01:00:16;;;;;;;0.50;0.50;;;;;;;7.84;43.13;97900.16;29394;222;64005;-62
2022/03/24 01:00:47;;;;;;;0.55;0.55;;;;;;;7.84;43.30;97898.28;29395;204;63009;-63
2022/03/24 01:01:18;;;;;;;0.50;0.50;;;;;;;7.85;43.35;97899.91;29395;217;63012;-63
2022/03/24 01:01:50;;;;;;;0.50;0.50;;;;;;;7.86;43.26;97898.84;29395;220;63009;-62
2022/03/24 01:02:25;;;;;;;0.50;0.50;;;;;;;7.87;42.86;97889.69;29394;231;64004;-61
2022/03/24 01:02:57;;;;;;;0.50;0.50;;;;;;;7.88;42.76;97895.91;29395;215;63009;-63
2022/03/24 01:03:28;;;;;;;0.50;0.50;;;;;;;7.88;42.81;97891.31;29395;237;63004;-62
2022/03/24 01:04:00;;;;;;;0.50;0.50;;;;;;;7.89;42.91;97892.94;29395;360;63008;-63
2022/03/24 01:04:31;;;;;;;0.50;0.50;;;;;;;7.88;42.81;97896.72;29395;302;63005;-63
2022/03/24 01:05:06;;;;;;;0.50;0.50;;;;;;;7.90;42.74;97899.16;29394;199;64009;-62
2022/03/24 01:05:38;;;;;;;0.55;0.55;;;;;;;7.88;42.69;97888.59;29395;197;63005;-62
2022/03/24 01:06:10;;;;;;;0.60;0.60;;;;;;;7.88;42.71;97896.72;29395;204;63009;-62
2022/03/24 01:06:43;;;;;;;0.50;0.50;;;;;;;7.88;42.54;97891.31;29395;222;63005;-62
2022/03/24 01:07:14;;;;;;;0.50;0.50;;;;;;;7.89;42.76;97892.94;29395;220;63009;-61
2022/03/24 01:07:47;;;;;;;0.50;0.50;;;;;;;7.89;42.67;97892.94;29395;242;63005;-61
2022/03/24 01:08:20;;;;;;;0.50;0.50;;;;;;;7.90;42.92;97893.75;29395;316;63009;-62
2022/03/24 01:08:51;;;;;;;0.50;0.50;;;;;;;7.91;42.68;97890.81;29395;197;63004;-60
2022/03/24 01:09:23;;;;;;;0.50;0.50;;;;;;;7.91;42.59;97893.50;29395;202;63009;-62
2022/03/24 01:09:56;;;;;;;0.60;0.60;;;;;;;7.90;42.77;97889.19;29394;249;64004;-59
2022/03/24 01:10:27;;;;;;;0.60;0.60;;;;;;;7.90;42.72;97883.78;29395;225;63009;-62
2022/03/24 01:10:58;;;;;;;0.50;0.50;;;;;;;7.90;42.73;97889.19;29395;211;63004;-62
2022/03/24 01:11:31;;;;;;;0.50;0.50;;;;;;;7.91;42.92;97890.00;29395;218;63008;-62
2022/03/24 01:12:06;;;;;;;0.50;0.50;;;;;;;7.90;42.64;97889.19;29395;202;63005;-61
2022/03/24 01:12:39;;;;;;;0.57;0.57;;;;;;;7.90;42.68;97888.34;29395;293;63009;-61
2022/03/24 01:13:11;;;;;;;0.50;0.50;;;;;;;7.89;42.75;97884.03;29395;215;63005;-62
2022/03/24 01:13:43;;;;;;;0.50;0.50;;;;;;;7.89;42.79;97887.53;29394;212;64009;-62
2022/03/24 01:14:16;;;;;;;0.50;0.50;;;;;;;7.88;43.01;97885.91;29395;250;63005;-62
2022/03/24 01:14:47;;;;;;;0.60;0.60;;;;;;;7.87;42.83;97886.97;29395;241;63009;-61
2022/03/24 01:15:22;;;;;;;0.50;0.50;;;;;;;7.85;42.97;97881.00;29395;370;63005;-61
2022/03/24 01:15:54;;;;;;;0.60;0.60;;;;;;;7.85;43.13;97888.28;29395;218;63009;-61
2022/03/24 01:16:25;;;;;;;0.50;0.50;;;;;;;7.84;43.12;97889.34;29395;229;63004;-61
2022/03/24 01:16:57;;;;;;;0.50;0.50;;;;;;;7.83;43.07;97885.84;29395;232;63009;-63
2022/03/24 01:17:28;;;;;;;0.50;0.50;;;;;;;7.83;43.30;97882.31;29395;262;63004;-61
2022/03/24 01:18:00;;;;;;;0.50;0.50;;;;;;;7.82;43.03;97886.91;29395;233;63009;-61
2022/03/24 01:18:35;;;;;;;0.50;0.50;;;;;;;7.81;43.07;97885.28;29394;196;64004;-62
2022/03/24 01:19:06;;;;;;;0.50;0.50;;;;;;;7.80;43.34;97878.22;29395;253;63008;-61
2022/03/24 01:19:37;;;;;;;0.50;0.50;;;;;;;7.79;43.29;97882.00;29395;202;63005;-61
2022/03/24 01:20:11;;;;;;;0.50;0.50;;;;;;;7.79;43.49;97884.69;29395;217;63009;-60
2022/03/24 01:20:43;;;;;;;0.50;0.50;;;;;;;7.78;43.17;97888.47;29395;222;63005;-60
2022/03/24 01:21:16;;;;;;;0.50;0.50;;;;;;;7.78;43.60;97885.78;29395;223;63009;-60
2022/03/24 01:21:47;;;;;;;0.50;0.50;;;;;;;7.78;43.27;97887.66;29395;280;63005;-61
2022/03/24 01:22:19;;;;;;;0.50;0.50;;;;;;;7.76;43.63;97882.50;29395;243;63009;-61
2022/03/24 01:22:50;;;;;;;0.50;0.50;;;;;;;7.76;43.58;97882.50;29394;206;64005;-62
2022/03/24 01:23:25;;;;;;;0.50;0.50;;;;;;;7.76;43.70;97882.50;29395;214;63018;-59
2022/03/24 01:23:59;;;;;;;0.50;0.50;;;;;;;7.74;43.73;97876.53;29395;284;63004;-61
2022/03/24 01:24:37;;;;;;;0.50;0.50;;;;;;;7.76;43.67;97885.19;29395;198;63009;-61
2022/03/24 01:25:09;;;;;;;0.50;0.50;;;;;;;7.73;43.64;97881.13;29395;210;63004;-61
2022/03/24 01:25:42;;;;;;;0.50;0.50;;;;;;;7.72;43.71;97882.19;29395;254;63008;-60
2022/03/24 01:26:15;;;;;;;0.50;0.50;;;;;;;7.71;43.67;97879.72;29394;225;64004;-62
2022/03/24 01:26:46;;;;;;;0.60;0.60;;;;;;;7.71;43.81;97877.03;29395;199;63009;-62
2022/03/24 01:27:18;;;;;;;0.50;0.50;;;;;;;7.72;43.92;97884.06;29395;207;63005;-62
2022/03/24 01:27:51;;;;;;;0.50;0.50;;;;;;;7.71;43.94;97874.31;29395;321;63009;-62
2022/03/24 01:28:22;;;;;;;0.50;0.50;;;;;;;7.71;43.92;97874.31;29395;237;63005;-61
2022/03/24 01:28:56;;;;;;;0.50;0.50;;;;;;;7.71;43.62;97877.03;29394;202;64009;-61
2022/03/24 01:29:27;;;;;;;0.50;0.50;;;;;;;7.72;43.64;97878.66;29395;239;63005;-61
2022/03/24 01:29:59;;;;;;;0.50;0.50;;;;;;;7.71;43.91;97880.53;29395;229;63009;-63
2022/03/24 01:30:30;;;;;;;0.50;0.50;;;;;;;7.71;43.98;97874.31;29395;220;63004;-61
2022/03/24 01:31:02;;;;;;;0.50;0.50;;;;;;;7.70;44.07;97872.69;29395;237;63009;-62
2022/03/24 01:31:33;;;;;;;0.50;0.50;;;;;;;7.72;43.89;97875.97;29395;208;63004;-60
2022/03/24 01:32:06;;;;;;;0.50;0.50;;;;;;;7.71;44.01;97877.84;29394;265;64009;-62
2022/03/24 01:32:37;;;;;;;0.50;0.50;;;;;;;7.71;43.98;97872.44;29395;196;63004;-61
2022/03/24 01:33:10;;;;;;;0.50;0.50;;;;;;;7.71;43.82;97875.16;29394;235;64008;-62
2022/03/24 01:33:42;;;;;;;0.50;0.50;;;;;;;7.72;43.95;97875.97;29395;232;63004;-61
2022/03/24 01:34:14;;;;;;;0.60;0.60;;;;;;;7.73;44.15;97872.19;29395;238;63009;-62
2022/03/24 01:34:45;;;;;;;0.50;0.50;;;;;;;7.73;43.79;97872.19;29395;197;63005;-62
2022/03/24 01:35:17;;;;;;;0.50;0.50;;;;;;;7.74;43.85;97877.34;29395;242;63009;-62
2022/03/24 01:35:49;;;;;;;0.50;0.50;;;;;;;7.75;43.99;97872.75;29395;211;63005;-60
2022/03/24 01:36:21;;;;;;;0.52;0.52;;;;;;;7.77;43.72;97872.50;29394;223;64009;-63
2022/03/24 01:36:53;;;;;;;0.50;0.50;;;;;;;7.77;43.60;97873.31;29395;213;63005;-61
2022/03/24 01:37:24;;;;;;;0.50;0.50;;;;;;;7.78;43.84;97880.38;29395;202;63009;-61
2022/03/24 01:37:55;;;;;;;0.60;0.60;;;;;;;7.78;43.75;97868.75;29395;237;63005;-59
2022/03/24 01:38:27;;;;;;;0.50;0.50;;;;;;;7.77;43.46;97873.31;29395;207;63009;-60
2022/03/24 01:38:58;;;;;;;0.50;0.50;;;;;;;7.79;43.76;97876.59;29395;273;63004;-61
2022/03/24 01:39:29;;;;;;;0.50;0.50;;;;;;;7.79;43.91;97876.59;29395;237;63009;-60
2022/03/24 01:40:01;;;;;;;0.50;0.50;;;;;;;7.79;43.76;97871.19;29395;198;63004;-62
2022/03/24 01:40:32;;;;;;;0.50;0.50;;;;;;;7.81;43.54;97874.47;29395;213;63008;-61
2022/03/24 01:41:04;;;;;;;0.50;0.50;;;;;;;7.82;43.24;97870.69;29395;209;63004;-62
2022/03/24 01:41:37;;;;;;;0.50;0.50;;;;;;;7.84;43.09;97865.84;29394;279;63999;-60
2022/03/24 01:42:09;;;;;;;0.50;0.50;;;;;;;7.86;43.02;97869.13;29395;226;63005;-61
2022/03/24 01:42:41;;;;;;;0.60;0.60;;;;;;;7.86;43.01;97871.81;29395;209;63009;-60
2022/03/24 01:43:12;;;;;;;0.50;0.50;;;;;;;7.86;42.52;97861.03;29395;250;63009;-63
2022/03/24 01:43:43;;;;;;;0.50;0.50;;;;;;;7.85;42.58;97859.37;29395;219;63005;-61
2022/03/24 01:44:17;;;;;;;0.50;0.50;;;;;;;7.85;42.50;97869.38;29395;233;63005;-61
2022/03/24 01:44:51;;;;;;;0.50;0.50;;;;;;;7.84;42.80;97865.84;29394;215;64009;-61
2022/03/24 01:45:22;;;;;;;0.50;0.50;;;;;;;7.82;42.71;97865.28;29395;231;63005;-60
2022/03/24 01:45:54;;;;;;;0.50;0.50;;;;;;;7.82;42.97;97867.19;29395;204;63009;-62
2022/03/24 01:46:26;;;;;;;0.50;0.50;;;;;;;7.81;42.36;97860.97;29394;231;64004;-61
2022/03/24 01:47:08;;;;;;;0.50;0.50;;;;;;;7.82;42.63;97861.78;29395;241;63009;-62
2022/03/24 01:47:40;;;;;;;0.50;0.50;;;;;;;7.80;42.52;97862.03;29394;237;64004;-62
2022/03/24 01:48:12;;;;;;;0.50;0.50;;;;;;;7.80;42.41;97864.72;29395;211;63008;-61
2022/03/24 01:48:43;;;;;;;0.50;0.50;;;;;;;7.81;42.74;97860.13;29395;202;63008;-62
2022/03/24 01:49:14;;;;;;;0.50;0.50;;;;;;;7.80;42.70;97867.44;29395;203;63009;-63
2022/03/24 01:49:47;;;;;;;0.60;0.60;;;;;;;7.79;42.78;97863.09;29395;240;63005;-62
2022/03/24 01:50:18;;;;;;;0.50;0.50;;;;;;;7.78;42.83;97858.75;29395;226;63009;-62
2022/03/24 01:50:50;;;;;;;0.60;0.60;;;;;;;7.78;42.82;97858.75;29395;216;63005;-62
2022/03/24 01:51:21;;;;;;;0.50;0.50;;;;;;;7.77;42.88;97859.00;29395;218;63009;-61
2022/03/24 01:51:54;;;;;;;0.50;0.50;;;;;;;7.75;42.76;97864.66;29395;243;63005;-61
2022/03/24 01:52:28;;;;;;;0.60;0.60;;;;;;;7.75;42.91;97867.34;29395;197;63009;-62
2022/03/24 01:53:00;;;;;;;0.50;0.50;;;;;;;7.75;42.90;97859.25;29394;196;64005;-61
2022/03/24 01:53:31;;;;;;;0.50;0.50;;;;;;;7.73;42.85;97861.38;29395;224;63009;-62
2022/03/24 01:54:02;;;;;;;0.50;0.50;;;;;;;7.71;42.71;97858.13;29395;242;63004;-62
2022/03/24 01:54:37;;;;;;;0.50;0.50;;;;;;;7.68;42.81;97870.25;29395;232;63009;-62
2022/03/24 01:55:08;;;;;;;0.50;0.50;;;;;;;7.64;42.81;97862.88;29395;233;63013;-62
2022/03/24 01:55:41;;;;;;;0.50;0.50;;;;;;;7.63;43.25;97861.25;29395;204;63008;-63
2022/03/24 01:56:13;;;;;;;0.50;0.50;;;;;;;7.60;43.08;97857.19;29395;223;63004;-60
2022/03/24 01:56:45;;;;;;;0.50;0.50;;;;;;;7.60;43.06;97859.06;29395;197;63009;-63
2022/03/24 01:57:17;;;;;;;0.50;0.50;;;;;;;7.59;42.95;97865.53;29395;287;63005;-63
2022/03/24 01:57:50;;;;;;;0.50;0.50;;;;;;;7.57;43.08;97856.88;29394;211;64009;-62
2022/03/24 01:58:24;;;;;;;0.50;0.50;;;;;;;7.54;43.61;97857.38;29394;287;64005;-63
2022/03/24 01:58:57;;;;;;;0.50;0.50;;;;;;;7.52;43.85;97867.59;29395;202;63009;-62
2022/03/24 01:59:28;;;;;;;0.60;0.60;;;;;;;7.48;43.94;97863.75;29395;228;63005;-62
2022/03/24 02:00:00;;;;;;;0.50;0.50;;;;;;;7.45;43.63;97864.25;29394;235;64009;-63
2022/03/24 02:00:33;;;;;;;0.50;0.50;;;;;;;7.44;44.01;97868.03;29395;296;63005;-62
2022/03/24 02:01:28;;;;;;;0.50;0.50;;;;;;;7.39;44.35;97866.87;29395;222;63009;-62
2022/03/24 02:01:59;;;;;;;0.60;0.60;;;;;;;7.37;44.25;97868.19;29395;239;63004;-63
2022/03/24 02:02:30;;;;;;;0.50;0.50;;;;;;;7.37;44.54;97870.88;29395;258;63009;-61
2022/03/24 02:03:04;;;;;;;0.50;0.50;;;;;;;7.35;44.35;97870.31;29395;239;63004;-62
2022/03/24 02:03:36;;;;;;;0.50;0.50;;;;;;;7.33;44.43;97865.16;29395;196;63008;-61
2022/03/24 02:04:09;;;;;;;0.50;0.50;;;;;;;7.32;44.05;97866.22;29395;207;63010;-63
2022/03/24 02:04:43;;;;;;;2.20;2.15;;;;;;;7.32;44.13;97865.41;29395;215;63009;-62
2022/03/24 02:05:14;;;;;;;0.50;0.50;;;;;;;7.30;44.07;97868.34;29394;202;64005;-62
2022/03/24 02:05:45;;;;;;;0.50;0.50;;;;;;;7.29;44.39;97871.31;29395;211;63009;-62
2022/03/24 02:06:17;;;;;;;0.60;0.60;;;;;;;7.28;44.36;97869.66;29395;228;63005;-62
2022/03/24 02:06:49;;;;;;;0.60;0.60;;;;;;;7.26;44.71;97871.81;29395;200;63009;-62
2022/03/24 02:07:20;;;;;;;0.50;0.50;;;;;;;7.23;44.89;97866.91;29395;316;63005;-63
2022/03/24 02:07:52;;;;;;;0.50;0.50;;;;;;;7.21;44.81;97864.47;29394;252;64026;-62
2022/03/24 02:08:26;;;;;;;1.02;1.02;;;;;;;7.20;45.48;97879.03;29394;222;64004;-62
2022/03/24 02:09:01;;;;;;;0.50;0.50;;;;;;;7.18;46.15;97874.94;29395;255;63009;-62
2022/03/24 02:09:35;;;;;;;0.55;0.55;;;;;;;7.14;45.49;97869.22;29395;211;63004;-61
2022/03/24 02:10:08;;;;;;;0.50;0.50;;;;;;;7.13;45.68;97875.69;29395;218;63009;-62
2022/03/24 02:10:39;;;;;;;1.15;1.15;;;;;;;7.14;45.65;97869.22;29395;203;63004;-62
2022/03/24 02:11:11;;;;;;;0.60;0.60;;;;;;;7.16;45.03;97872.50;29395;202;63008;-63
2022/03/24 02:11:42;;;;;;;0.60;0.60;;;;;;;7.17;44.47;97874.13;29395;204;63005;-62
2022/03/24 02:12:14;;;;;;;0.50;0.50;;;;;;;7.18;44.18;97864.97;29395;208;63009;-62
2022/03/24 02:12:45;;;;;;;0.60;0.60;;;;;;;7.20;44.11;97865.53;29395;240;63005;-60
2022/03/24 02:13:16;;;;;;;0.60;0.60;;;;;;;7.21;44.24;97859.06;29394;260;64009;-62
2022/03/24 02:13:47;;;;;;;0.50;0.50;;;;;;;7.23;43.85;97862.34;29395;262;63005;-60
2022/03/24 02:14:19;;;;;;;0.50;0.50;;;;;;;7.25;43.95;97860.22;29395;257;63009;-62
2022/03/24 02:14:53;;;;;;;0.50;0.50;;;;;;;7.26;43.58;97867.25;29373;236;63005;-62
2022/03/24 02:15:27;;;;;;;0.50;0.50;;;;;;;7.29;43.88;97861.31;29395;211;63009;-63
2022/03/24 02:16:01;;;;;;;0.50;0.50;;;;;;;7.30;43.71;97862.97;29395;208;63004;-60
2022/03/24 02:16:38;;;;;;;0.55;0.55;;;;;;;7.31;43.75;97863.78;29395;254;63009;-62
2022/03/24 02:17:10;;;;;;;0.60;0.60;;;;;;;7.31;43.47;97859.19;29395;198;63004;-63
2022/03/24 02:17:41;;;;;;;0.50;0.50;;;;;;;7.27;43.76;97857.25;29395;289;63008;-62
2022/03/24 02:18:13;;;;;;;0.60;0.60;;;;;;;7.31;43.52;97859.19;29395;239;63004;-62
2022/03/24 02:18:48;;;;;;;0.55;0.55;;;;;;;7.30;43.74;97857.56;29394;247;64008;-62
2022/03/24 02:19:21;;;;;;;0.55;0.55;;;;;;;7.29;44.07;97864.03;29395;206;63005;-62
2022/03/24 02:19:52;;;;;;;0.50;0.50;;;;;;;7.29;44.34;97861.31;29395;197;63009;-61
2022/03/24 02:20:25;;;;;;;0.60;0.60;;;;;;;7.27;44.32;97862.66;29395;272;63005;-62
2022/03/24 02:20:57;;;;;;;0.60;0.60;;;;;;;7.26;44.63;97871.81;29395;229;63009;-61
2022/03/24 02:21:28;;;;;;;0.50;0.50;;;;;;;7.24;44.76;97863.16;29395;216;63005;-64
2022/03/24 02:22:27;;;;;;;0.50;0.50;;;;;;;7.21;44.56;97864.47;29395;244;63009;-60
2022/03/24 02:22:59;;;;;;;2.50;2.40;;;;;;;7.20;44.61;97865.53;29395;294;63004;-62
2022/03/24 02:23:30;;;;;;;0.60;0.60;;;;;;;7.18;44.56;97867.66;29394;199;64009;-62
2022/03/24 02:24:01;;;;;;;0.57;0.57;;;;;;;7.17;44.84;97860.63;29395;230;63004;-63
2022/03/24 02:24:32;;;;;;;1.17;1.17;;;;;;;7.16;44.87;97859.00;29395;202;63009;-61
2022/03/24 02:25:07;;;;;;;0.50;0.50;;;;;;;7.17;44.91;97857.94;29395;230;63004;-62
2022/03/24 02:25:40;;;;;;;0.60;0.60;;;;;;;7.17;44.56;97866.03;29395;210;63008;-62
2022/03/24 02:26:12;;;;;;;0.50;0.50;;;;;;;7.17;44.79;97862.50;29395;197;63005;-61
2022/03/24 02:26:45;;;;;;;0.50;0.50;;;;;;;7.16;44.83;97861.69;29395;221;63009;-62
2022/03/24 02:27:16;;;;;;;0.50;0.50;;;;;;;7.17;44.75;97867.91;29395;224;63005;-62
2022/03/24 02:27:51;;;;;;;1.15;1.15;;;;;;;7.17;44.75;97863.31;29394;247;64009;-62
2022/03/24 02:28:31;;;;;;;0.50;0.50;;;;;;;7.17;44.84;97857.94;29395;230;63005;-62
2022/03/24 02:29:07;;;;;;;0.50;0.50;;;;;;;7.19;44.67;97860.38;29417;219;63009;-60
2022/03/24 02:29:38;;;;;;;0.50;0.50;;;;;;;7.19;44.49;97865.78;29395;199;63005;-61
2022/03/24 02:30:10;;;;;;;0.50;0.50;;;;;;;7.18;44.64;97864.97;29395;219;63009;-62
2022/03/24 02:30:41;;;;;;;0.50;0.50;;;;;;;7.18;44.41;97859.56;29394;218;64004;-62
2022/03/24 02:31:16;;;;;;;0.50;0.50;;;;;;;7.17;44.59;97857.94;29395;218;63009;-61
2022/03/24 02:31:50;;;;;;;0.50;0.50;;;;;;;7.16;44.95;97859.00;29395;232;63004;-62
2022/03/24 02:32:21;;;;;;;0.50;0.50;;;;;;;7.13;45.16;97862.19;29395;197;63009;-62
2022/03/24 02:32:52;;;;;;;0.60;0.60;;;;;;;7.13;45.05;97862.19;29395;284;63004;-62
2022/03/24 02:33:23;;;;;;;0.50;0.50;;;;;;;7.10;45.14;97857.28;29395;210;63009;-61
2022/03/24 02:34:37;;;;;;;0.50;0.50;;;;;;;7.11;45.39;97856.22;29395;213;63005;-61
2022/03/24 02:34:51;;;;;;;0.50;0.50;;;;;;;7.07;45.46;97858.59;29394;216;64009;-62
2022/03/24 02:35:22;;;;;;;0.50;0.50;;;;;;;7.06;45.55;97854.25;29371;198;64005;-63
2022/03/24 02:35:53;;;;;;;0.50;0.50;;;;;;;7.05;45.65;97859.87;29373;210;63009;-63
2022/03/24 02:36:24;;;;;;;0.50;0.50;;;;;;;7.05;45.75;97865.28;29395;240;63005;-62
2022/03/24 02:36:57;;;;;;;0.55;0.55;;;;;;;7.03;45.79;97862.84;29395;212;63009;-63